sensor_id;sensor_type;location;lat;lon;timestamp;temperature;humidity
43920;DHT22;29578;51.946;5.874;2023-05-07T00:01:16;15.30;82.00
43920;DHT22;29578;51.946;5.874;2023-05-07T00:03:42;15.20;82.00
43920;DHT22;29578;51.946;5.874;2023-05-07T00:06:07;15.20;81.90
43920;DHT22;29578;51.946;5.874;2023-05-07T00:08:33;15.20;82.00
43920;DHT22;29578;51.946;5.874;2023-05-07T00:10:59;15.20;82.00
43920;DHT22;29578;51.946;5.874;2023-05-07T00:13:24;15.30;82.10
43920;DHT22;29578;51.946;5.874;2023-05-07T00:15:50;15.20;82.10
43920;DHT22;29578;51.946;5.874;2023-05-07T00:18:16;15.20;82.10
43920;DHT22;29578;51.946;5.874;2023-05-07T00:20:41;15.10;82.20
43920;DHT22;29578;51.946;5.874;2023-05-07T00:23:07;15.00;82.20
43920;DHT22;29578;51.946;5.874;2023-05-07T00:25:32;15.10;82.30
43920;DHT22;29578;51.946;5.874;2023-05-07T00:27:58;15.00;82.30
43920;DHT22;29578;51.946;5.874;2023-05-07T00:30:28;15.10;82.40
43920;DHT22;29578;51.946;5.874;2023-05-07T00:32:54;15.00;82.30
43920;DHT22;29578;51.946;5.874;2023-05-07T00:35:20;15.00;82.40
43920;DHT22;29578;51.946;5.874;2023-05-07T00:37:45;15.00;82.40
43920;DHT22;29578;51.946;5.874;2023-05-07T00:40:11;15.00;82.40
43920;DHT22;29578;51.946;5.874;2023-05-07T00:42:37;15.00;82.50
43920;DHT22;29578;51.946;5.874;2023-05-07T00:45:03;15.00;82.50
43920;DHT22;29578;51.946;5.874;2023-05-07T00:47:29;15.00;82.50
43920;DHT22;29578;51.946;5.874;2023-05-07T00:49:54;14.90;82.50
43920;DHT22;29578;51.946;5.874;2023-05-07T00:52:21;14.90;82.60
43920;DHT22;29578;51.946;5.874;2023-05-07T00:54:51;14.90;82.60
43920;DHT22;29578;51.946;5.874;2023-05-07T00:57:17;14.90;82.70
43920;DHT22;29578;51.946;5.874;2023-05-07T00:59:42;14.90;82.70
43920;DHT22;29578;51.946;5.874;2023-05-07T01:02:08;14.80;82.70
43920;DHT22;29578;51.946;5.874;2023-05-07T01:04:34;14.90;82.80
43920;DHT22;29578;51.946;5.874;2023-05-07T01:07:01;14.80;82.80
43920;DHT22;29578;51.946;5.874;2023-05-07T01:09:28;14.80;82.80
43920;DHT22;29578;51.946;5.874;2023-05-07T01:11:55;14.80;82.80
43920;DHT22;29578;51.946;5.874;2023-05-07T01:14:22;14.70;82.80
43920;DHT22;29578;51.946;5.874;2023-05-07T01:16:48;14.80;82.80
43920;DHT22;29578;51.946;5.874;2023-05-07T01:19:18;14.70;82.80
43920;DHT22;29578;51.946;5.874;2023-05-07T01:21:46;14.70;82.80
43920;DHT22;29578;51.946;5.874;2023-05-07T01:24:13;14.80;82.90
43920;DHT22;29578;51.946;5.874;2023-05-07T01:26:39;14.70;82.90
43920;DHT22;29578;51.946;5.874;2023-05-07T01:29:05;14.70;83.00
43920;DHT22;29578;51.946;5.874;2023-05-07T01:31:32;14.70;82.90
43920;DHT22;29578;51.946;5.874;2023-05-07T01:33:59;14.70;83.00
43920;DHT22;29578;51.946;5.874;2023-05-07T01:36:27;14.70;83.00
43920;DHT22;29578;51.946;5.874;2023-05-07T01:38:54;14.70;83.00
43920;DHT22;29578;51.946;5.874;2023-05-07T01:41:20;14.60;82.90
43920;DHT22;29578;51.946;5.874;2023-05-07T01:43:47;14.70;83.00
43920;DHT22;29578;51.946;5.874;2023-05-07T01:46:13;14.70;83.00
43920;DHT22;29578;51.946;5.874;2023-05-07T01:48:40;14.70;83.00
43920;DHT22;29578;51.946;5.874;2023-05-07T01:51:06;14.70;83.00
43920;DHT22;29578;51.946;5.874;2023-05-07T01:53:39;14.70;82.90
43920;DHT22;29578;51.946;5.874;2023-05-07T01:56:06;14.60;83.00
43920;DHT22;29578;51.946;5.874;2023-05-07T01:58:32;14.60;82.90
43920;DHT22;29578;51.946;5.874;2023-05-07T02:00:57;14.70;83.00
43920;DHT22;29578;51.946;5.874;2023-05-07T02:03:23;14.60;83.00
43920;DHT22;29578;51.946;5.874;2023-05-07T02:05:48;14.60;83.00
43920;DHT22;29578;51.946;5.874;2023-05-07T02:08:14;14.60;83.00
43920;DHT22;29578;51.946;5.874;2023-05-07T02:10:40;14.60;83.00
43920;DHT22;29578;51.946;5.874;2023-05-07T02:13:05;14.60;83.00
43920;DHT22;29578;51.946;5.874;2023-05-07T02:15:31;14.60;83.00
43920;DHT22;29578;51.946;5.874;2023-05-07T02:18:02;14.60;83.00
43920;DHT22;29578;51.946;5.874;2023-05-07T02:20:28;14.60;83.10
43920;DHT22;29578;51.946;5.874;2023-05-07T02:22:54;14.60;83.10
43920;DHT22;29578;51.946;5.874;2023-05-07T02:25:20;14.60;83.10
43920;DHT22;29578;51.946;5.874;2023-05-07T02:27:45;14.60;83.10
43920;DHT22;29578;51.946;5.874;2023-05-07T02:30:11;14.70;83.20
43920;DHT22;29578;51.946;5.874;2023-05-07T02:32:37;14.70;83.10
43920;DHT22;29578;51.946;5.874;2023-05-07T02:35:03;14.60;83.10
43920;DHT22;29578;51.946;5.874;2023-05-07T02:37:28;14.70;83.20
43920;DHT22;29578;51.946;5.874;2023-05-07T02:39:54;14.60;83.20
43920;DHT22;29578;51.946;5.874;2023-05-07T02:42:20;14.60;83.20
43920;DHT22;29578;51.946;5.874;2023-05-07T02:44:45;14.60;83.20
43920;DHT22;29578;51.946;5.874;2023-05-07T02:47:11;14.60;83.20
43920;DHT22;29578;51.946;5.874;2023-05-07T02:49:38;14.60;83.20
43920;DHT22;29578;51.946;5.874;2023-05-07T02:52:04;14.60;83.20
43920;DHT22;29578;51.946;5.874;2023-05-07T02:54:30;14.60;83.20
43920;DHT22;29578;51.946;5.874;2023-05-07T02:56:55;14.60;83.20
43920;DHT22;29578;51.946;5.874;2023-05-07T02:59:21;14.60;83.20
43920;DHT22;29578;51.946;5.874;2023-05-07T03:01:47;14.70;83.30
43920;DHT22;29578;51.946;5.874;2023-05-07T03:04:13;14.60;83.20
43920;DHT22;29578;51.946;5.874;2023-05-07T03:06:39;14.60;83.30
43920;DHT22;29578;51.946;5.874;2023-05-07T03:09:04;14.60;83.20
43920;DHT22;29578;51.946;5.874;2023-05-07T03:11:30;14.60;83.20
43920;DHT22;29578;51.946;5.874;2023-05-07T03:13:56;14.60;83.20
43920;DHT22;29578;51.946;5.874;2023-05-07T03:16:21;14.60;83.20
43920;DHT22;29578;51.946;5.874;2023-05-07T03:18:47;14.60;83.20
43920;DHT22;29578;51.946;5.874;2023-05-07T03:21:12;14.60;83.20
43920;DHT22;29578;51.946;5.874;2023-05-07T03:23:38;14.60;83.20
43920;DHT22;29578;51.946;5.874;2023-05-07T03:26:04;14.60;83.20
43920;DHT22;29578;51.946;5.874;2023-05-07T03:28:30;14.60;83.20
43920;DHT22;29578;51.946;5.874;2023-05-07T03:30:55;14.60;83.30
43920;DHT22;29578;51.946;5.874;2023-05-07T03:33:21;14.60;83.30
43920;DHT22;29578;51.946;5.874;2023-05-07T03:35:47;14.60;83.30
43920;DHT22;29578;51.946;5.874;2023-05-07T03:38:12;14.60;83.40
43920;DHT22;29578;51.946;5.874;2023-05-07T03:40:38;14.50;83.40
43920;DHT22;29578;51.946;5.874;2023-05-07T03:43:03;14.60;83.50
43920;DHT22;29578;51.946;5.874;2023-05-07T03:45:29;14.50;83.50
43920;DHT22;29578;51.946;5.874;2023-05-07T03:47:55;14.50;83.50
43920;DHT22;29578;51.946;5.874;2023-05-07T03:50:20;14.50;83.50
43920;DHT22;29578;51.946;5.874;2023-05-07T03:52:46;14.50;83.50
43920;DHT22;29578;51.946;5.874;2023-05-07T03:55:11;14.50;83.50
43920;DHT22;29578;51.946;5.874;2023-05-07T03:57:37;14.50;83.60
43920;DHT22;29578;51.946;5.874;2023-05-07T04:00:03;14.40;83.50
43920;DHT22;29578;51.946;5.874;2023-05-07T04:02:29;14.40;83.60
43920;DHT22;29578;51.946;5.874;2023-05-07T04:04:55;14.50;83.60
43920;DHT22;29578;51.946;5.874;2023-05-07T04:07:21;14.50;83.60
43920;DHT22;29578;51.946;5.874;2023-05-07T04:09:47;14.50;83.70
43920;DHT22;29578;51.946;5.874;2023-05-07T04:12:13;14.50;83.70
43920;DHT22;29578;51.946;5.874;2023-05-07T04:14:38;14.40;83.70
43920;DHT22;29578;51.946;5.874;2023-05-07T04:17:04;14.40;83.70
43920;DHT22;29578;51.946;5.874;2023-05-07T04:19:33;14.50;83.70
43920;DHT22;29578;51.946;5.874;2023-05-07T04:21:59;14.30;83.70
43920;DHT22;29578;51.946;5.874;2023-05-07T04:24:24;14.40;83.80
43920;DHT22;29578;51.946;5.874;2023-05-07T04:26:50;14.40;83.80
43920;DHT22;29578;51.946;5.874;2023-05-07T04:29:16;14.40;83.80
43920;DHT22;29578;51.946;5.874;2023-05-07T04:31:42;14.40;83.90
43920;DHT22;29578;51.946;5.874;2023-05-07T04:34:10;14.40;83.90
43920;DHT22;29578;51.946;5.874;2023-05-07T04:36:37;14.40;83.90
43920;DHT22;29578;51.946;5.874;2023-05-07T04:39:03;14.40;84.00
43920;DHT22;29578;51.946;5.874;2023-05-07T04:41:29;14.40;84.00
43920;DHT22;29578;51.946;5.874;2023-05-07T04:43:55;14.40;84.00
43920;DHT22;29578;51.946;5.874;2023-05-07T04:46:22;14.40;84.00
43920;DHT22;29578;51.946;5.874;2023-05-07T04:48:49;14.30;83.90
43920;DHT22;29578;51.946;5.874;2023-05-07T04:51:14;14.40;84.00
43920;DHT22;29578;51.946;5.874;2023-05-07T04:53:40;14.40;84.00
43920;DHT22;29578;51.946;5.874;2023-05-07T04:56:06;14.40;84.00
43920;DHT22;29578;51.946;5.874;2023-05-07T04:58:32;14.40;84.00
43920;DHT22;29578;51.946;5.874;2023-05-07T05:00:58;14.40;84.10
43920;DHT22;29578;51.946;5.874;2023-05-07T05:03:24;14.40;84.10
43920;DHT22;29578;51.946;5.874;2023-05-07T05:05:51;14.40;84.10
43920;DHT22;29578;51.946;5.874;2023-05-07T05:08:17;14.50;84.20
43920;DHT22;29578;51.946;5.874;2023-05-07T05:10:43;14.40;84.10
43920;DHT22;29578;51.946;5.874;2023-05-07T05:13:09;14.50;84.20
43920;DHT22;29578;51.946;5.874;2023-05-07T05:15:35;14.50;84.20
43920;DHT22;29578;51.946;5.874;2023-05-07T05:18:01;14.50;84.30
43920;DHT22;29578;51.946;5.874;2023-05-07T05:20:26;14.50;84.30
43920;DHT22;29578;51.946;5.874;2023-05-07T05:22:52;14.50;84.30
43920;DHT22;29578;51.946;5.874;2023-05-07T05:25:18;14.50;84.20
43920;DHT22;29578;51.946;5.874;2023-05-07T05:27:43;14.50;84.20
43920;DHT22;29578;51.946;5.874;2023-05-07T05:30:11;14.50;84.20
43920;DHT22;29578;51.946;5.874;2023-05-07T05:32:38;14.50;84.20
43920;DHT22;29578;51.946;5.874;2023-05-07T05:35:04;14.60;84.20
43920;DHT22;29578;51.946;5.874;2023-05-07T05:37:30;14.60;84.20
43920;DHT22;29578;51.946;5.874;2023-05-07T05:39:56;14.70;84.30
43920;DHT22;29578;51.946;5.874;2023-05-07T05:42:22;14.70;84.20
43920;DHT22;29578;51.946;5.874;2023-05-07T05:44:48;14.70;84.20
43920;DHT22;29578;51.946;5.874;2023-05-07T05:47:14;14.70;84.20
43920;DHT22;29578;51.946;5.874;2023-05-07T05:49:40;14.70;84.30
43920;DHT22;29578;51.946;5.874;2023-05-07T05:52:05;14.70;84.20
43920;DHT22;29578;51.946;5.874;2023-05-07T05:54:31;14.70;84.30
43920;DHT22;29578;51.946;5.874;2023-05-07T05:56:57;14.80;84.30
43920;DHT22;29578;51.946;5.874;2023-05-07T05:59:23;14.80;84.40
43920;DHT22;29578;51.946;5.874;2023-05-07T06:01:48;14.80;84.30
43920;DHT22;29578;51.946;5.874;2023-05-07T06:04:14;14.80;84.40
43920;DHT22;29578;51.946;5.874;2023-05-07T06:06:40;14.80;84.30
43920;DHT22;29578;51.946;5.874;2023-05-07T06:09:05;14.90;84.40
43920;DHT22;29578;51.946;5.874;2023-05-07T06:11:31;14.90;84.40
43920;DHT22;29578;51.946;5.874;2023-05-07T06:14:00;14.90;84.40
43920;DHT22;29578;51.946;5.874;2023-05-07T06:16:26;14.90;84.40
43920;DHT22;29578;51.946;5.874;2023-05-07T06:18:54;14.90;84.40
43920;DHT22;29578;51.946;5.874;2023-05-07T06:21:20;15.00;84.30
43920;DHT22;29578;51.946;5.874;2023-05-07T06:23:46;15.00;84.30
43920;DHT22;29578;51.946;5.874;2023-05-07T06:26:11;15.00;84.30
43920;DHT22;29578;51.946;5.874;2023-05-07T06:28:37;15.00;84.30
43920;DHT22;29578;51.946;5.874;2023-05-07T06:31:19;15.10;84.40
43920;DHT22;29578;51.946;5.874;2023-05-07T06:33:46;15.10;84.40
43920;DHT22;29578;51.946;5.874;2023-05-07T06:36:12;15.10;84.30
43920;DHT22;29578;51.946;5.874;2023-05-07T06:38:38;15.20;84.30
43920;DHT22;29578;51.946;5.874;2023-05-07T06:41:05;15.30;84.20
43920;DHT22;29578;51.946;5.874;2023-05-07T06:43:30;15.30;84.00
43920;DHT22;29578;51.946;5.874;2023-05-07T06:45:56;15.40;84.00
43920;DHT22;29578;51.946;5.874;2023-05-07T06:48:21;15.40;83.90
43920;DHT22;29578;51.946;5.874;2023-05-07T06:50:47;15.50;83.90
43920;DHT22;29578;51.946;5.874;2023-05-07T06:53:13;15.50;83.80
43920;DHT22;29578;51.946;5.874;2023-05-07T06:55:38;15.60;83.80
43920;DHT22;29578;51.946;5.874;2023-05-07T06:58:04;15.60;83.90
43920;DHT22;29578;51.946;5.874;2023-05-07T07:00:31;15.60;83.80
43920;DHT22;29578;51.946;5.874;2023-05-07T07:02:56;15.60;83.80
43920;DHT22;29578;51.946;5.874;2023-05-07T07:05:22;15.60;83.70
43920;DHT22;29578;51.946;5.874;2023-05-07T07:07:48;15.70;83.70
43920;DHT22;29578;51.946;5.874;2023-05-07T07:10:19;15.70;83.70
43920;DHT22;29578;51.946;5.874;2023-05-07T07:12:45;15.80;83.80
43920;DHT22;29578;51.946;5.874;2023-05-07T07:15:10;15.80;83.70
43920;DHT22;29578;51.946;5.874;2023-05-07T07:17:36;15.80;83.60
43920;DHT22;29578;51.946;5.874;2023-05-07T07:20:02;15.90;83.60
43920;DHT22;29578;51.946;5.874;2023-05-07T07:22:29;15.90;83.60
43920;DHT22;29578;51.946;5.874;2023-05-07T07:24:54;15.90;83.70
43920;DHT22;29578;51.946;5.874;2023-05-07T07:27:20;15.90;83.80
43920;DHT22;29578;51.946;5.874;2023-05-07T07:29:46;15.90;83.90
43920;DHT22;29578;51.946;5.874;2023-05-07T07:32:11;16.00;83.90
43920;DHT22;29578;51.946;5.874;2023-05-07T07:34:37;16.00;83.70
43920;DHT22;29578;51.946;5.874;2023-05-07T07:37:02;16.10;83.80
43920;DHT22;29578;51.946;5.874;2023-05-07T07:39:32;16.10;83.60
43920;DHT22;29578;51.946;5.874;2023-05-07T07:41:58;16.10;83.70
43920;DHT22;29578;51.946;5.874;2023-05-07T07:44:23;16.00;83.70
43920;DHT22;29578;51.946;5.874;2023-05-07T07:46:49;16.10;83.80
43920;DHT22;29578;51.946;5.874;2023-05-07T07:49:15;16.10;83.80
43920;DHT22;29578;51.946;5.874;2023-05-07T07:51:41;16.10;83.80
43920;DHT22;29578;51.946;5.874;2023-05-07T07:54:07;16.10;83.90
43920;DHT22;29578;51.946;5.874;2023-05-07T07:56:33;16.10;83.80
43920;DHT22;29578;51.946;5.874;2023-05-07T07:58:59;16.00;83.80
43920;DHT22;29578;51.946;5.874;2023-05-07T08:01:25;16.10;83.90
43920;DHT22;29578;51.946;5.874;2023-05-07T08:03:51;16.10;83.90
43920;DHT22;29578;51.946;5.874;2023-05-07T08:06:17;16.20;84.00
43920;DHT22;29578;51.946;5.874;2023-05-07T08:08:42;16.20;83.90
43920;DHT22;29578;51.946;5.874;2023-05-07T08:11:08;16.20;83.80
43920;DHT22;29578;51.946;5.874;2023-05-07T08:13:34;16.30;83.90
43920;DHT22;29578;51.946;5.874;2023-05-07T08:16:00;16.20;83.90
43920;DHT22;29578;51.946;5.874;2023-05-07T08:18:26;16.30;84.00
43920;DHT22;29578;51.946;5.874;2023-05-07T08:20:53;16.40;83.90
43920;DHT22;29578;51.946;5.874;2023-05-07T08:23:19;16.40;83.80
43920;DHT22;29578;51.946;5.874;2023-05-07T08:25:45;16.50;83.80
43920;DHT22;29578;51.946;5.874;2023-05-07T08:28:11;16.60;83.60
43920;DHT22;29578;51.946;5.874;2023-05-07T08:30:36;16.60;83.50
43920;DHT22;29578;51.946;5.874;2023-05-07T08:33:02;16.70;83.40
43920;DHT22;29578;51.946;5.874;2023-05-07T08:35:28;16.80;83.40
43920;DHT22;29578;51.946;5.874;2023-05-07T08:37:53;16.80;83.30
43920;DHT22;29578;51.946;5.874;2023-05-07T08:40:21;16.90;83.20
43920;DHT22;29578;51.946;5.874;2023-05-07T08:42:50;17.00;83.10
43920;DHT22;29578;51.946;5.874;2023-05-07T08:45:18;17.00;83.00
43920;DHT22;29578;51.946;5.874;2023-05-07T08:47:46;17.10;82.90
43920;DHT22;29578;51.946;5.874;2023-05-07T08:50:13;17.10;82.80
43920;DHT22;29578;51.946;5.874;2023-05-07T08:52:42;17.10;82.90
43920;DHT22;29578;51.946;5.874;2023-05-07T08:55:08;17.10;83.00
43920;DHT22;29578;51.946;5.874;2023-05-07T08:57:34;17.10;83.00
43920;DHT22;29578;51.946;5.874;2023-05-07T09:00:01;17.10;83.00
43920;DHT22;29578;51.946;5.874;2023-05-07T09:02:27;17.20;83.10
43920;DHT22;29578;51.946;5.874;2023-05-07T09:04:52;17.20;83.00
43920;DHT22;29578;51.946;5.874;2023-05-07T09:07:19;17.20;83.10
43920;DHT22;29578;51.946;5.874;2023-05-07T09:09:46;17.30;83.10
43920;DHT22;29578;51.946;5.874;2023-05-07T09:12:12;17.30;83.00
43920;DHT22;29578;51.946;5.874;2023-05-07T09:14:38;17.50;82.90
43920;DHT22;29578;51.946;5.874;2023-05-07T09:17:04;17.70;82.70
43920;DHT22;29578;51.946;5.874;2023-05-07T09:19:30;17.90;82.30
43920;DHT22;29578;51.946;5.874;2023-05-07T09:22:00;18.00;81.80
43920;DHT22;29578;51.946;5.874;2023-05-07T09:24:26;18.20;81.50
43920;DHT22;29578;51.946;5.874;2023-05-07T09:26:53;18.30;81.30
43920;DHT22;29578;51.946;5.874;2023-05-07T09:29:21;18.30;81.20
43920;DHT22;29578;51.946;5.874;2023-05-07T09:31:46;18.30;81.20
43920;DHT22;29578;51.946;5.874;2023-05-07T09:34:12;18.40;81.20
43920;DHT22;29578;51.946;5.874;2023-05-07T09:36:37;18.40;81.30
43920;DHT22;29578;51.946;5.874;2023-05-07T09:39:03;18.50;81.30
43920;DHT22;29578;51.946;5.874;2023-05-07T09:41:30;18.50;81.80
43920;DHT22;29578;51.946;5.874;2023-05-07T09:43:58;18.60;81.10
43920;DHT22;29578;51.946;5.874;2023-05-07T09:46:27;18.70;81.10
43920;DHT22;29578;51.946;5.874;2023-05-07T09:48:57;18.80;80.90
43920;DHT22;29578;51.946;5.874;2023-05-07T09:51:29;18.80;80.70
43920;DHT22;29578;51.946;5.874;2023-05-07T09:53:57;18.90;80.70
43920;DHT22;29578;51.946;5.874;2023-05-07T09:56:25;18.90;80.60
43920;DHT22;29578;51.946;5.874;2023-05-07T09:58:54;19.00;80.60
43920;DHT22;29578;51.946;5.874;2023-05-07T10:01:21;19.10;80.70
43920;DHT22;29578;51.946;5.874;2023-05-07T10:03:49;19.10;80.30
43920;DHT22;29578;51.946;5.874;2023-05-07T10:06:16;19.30;80.20
43920;DHT22;29578;51.946;5.874;2023-05-07T10:08:43;19.40;80.00
43920;DHT22;29578;51.946;5.874;2023-05-07T10:11:09;19.50;79.80
43920;DHT22;29578;51.946;5.874;2023-05-07T10:13:35;19.70;79.70
43920;DHT22;29578;51.946;5.874;2023-05-07T10:16:04;19.90;79.30
43920;DHT22;29578;51.946;5.874;2023-05-07T10:18:32;20.00;79.30
43920;DHT22;29578;51.946;5.874;2023-05-07T10:21:17;20.00;79.20
43920;DHT22;29578;51.946;5.874;2023-05-07T10:23:51;20.10;79.10
43920;DHT22;29578;51.946;5.874;2023-05-07T10:26:20;20.20;79.00
43920;DHT22;29578;51.946;5.874;2023-05-07T10:28:50;20.40;79.00
43920;DHT22;29578;51.946;5.874;2023-05-07T10:31:38;20.60;78.70
43920;DHT22;29578;51.946;5.874;2023-05-07T10:34:12;20.80;78.10
43920;DHT22;29578;51.946;5.874;2023-05-07T10:36:39;20.90;78.00
43920;DHT22;29578;51.946;5.874;2023-05-07T10:39:06;20.80;78.00
43920;DHT22;29578;51.946;5.874;2023-05-07T10:41:32;20.90;78.20
43920;DHT22;29578;51.946;5.874;2023-05-07T10:43:57;20.90;78.10
43920;DHT22;29578;51.946;5.874;2023-05-07T10:46:26;21.00;78.10
43920;DHT22;29578;51.946;5.874;2023-05-07T10:49:07;21.10;77.90
43920;DHT22;29578;51.946;5.874;2023-05-07T10:51:34;21.10;78.00
43920;DHT22;29578;51.946;5.874;2023-05-07T10:54:20;21.10;78.00
43920;DHT22;29578;51.946;5.874;2023-05-07T10:56:45;21.20;78.00
43920;DHT22;29578;51.946;5.874;2023-05-07T10:59:30;21.30;77.90
43920;DHT22;29578;51.946;5.874;2023-05-07T11:01:58;21.20;77.70
43920;DHT22;29578;51.946;5.874;2023-05-07T11:04:24;21.20;77.90
43920;DHT22;29578;51.946;5.874;2023-05-07T11:09:59;21.30;77.90
43920;DHT22;29578;51.946;5.874;2023-05-07T11:12:49;21.30;77.90
43920;DHT22;29578;51.946;5.874;2023-05-07T11:15:32;21.30;77.80
43920;DHT22;29578;51.946;5.874;2023-05-07T11:17:59;21.30;78.00
43920;DHT22;29578;51.946;5.874;2023-05-07T11:23:55;21.30;77.70
43920;DHT22;29578;51.946;5.874;2023-05-07T11:26:21;21.40;77.70
43920;DHT22;29578;51.946;5.874;2023-05-07T11:28:47;21.40;77.60
43920;DHT22;29578;51.946;5.874;2023-05-07T11:31:13;21.50;77.50
43920;DHT22;29578;51.946;5.874;2023-05-07T11:33:39;21.60;77.30
43920;DHT22;29578;51.946;5.874;2023-05-07T11:36:07;21.70;77.20
43920;DHT22;29578;51.946;5.874;2023-05-07T11:38:37;21.70;77.10
43920;DHT22;29578;51.946;5.874;2023-05-07T11:41:03;21.70;77.00
43920;DHT22;29578;51.946;5.874;2023-05-07T11:43:31;21.70;77.00
43920;DHT22;29578;51.946;5.874;2023-05-07T11:46:07;21.70;77.00
43920;DHT22;29578;51.946;5.874;2023-05-07T11:48:33;21.70;77.00
43920;DHT22;29578;51.946;5.874;2023-05-07T11:51:03;21.70;77.00
43920;DHT22;29578;51.946;5.874;2023-05-07T11:53:37;21.70;77.00
43920;DHT22;29578;51.946;5.874;2023-05-07T11:56:07;21.60;77.10
43920;DHT22;29578;51.946;5.874;2023-05-07T11:58:33;21.70;77.10
43920;DHT22;29578;51.946;5.874;2023-05-07T12:00:59;21.60;77.10
43920;DHT22;29578;51.946;5.874;2023-05-07T12:03:24;21.70;77.10
43920;DHT22;29578;51.946;5.874;2023-05-07T12:05:50;21.70;77.00
43920;DHT22;29578;51.946;5.874;2023-05-07T12:08:18;21.80;76.90
43920;DHT22;29578;51.946;5.874;2023-05-07T12:10:45;21.80;76.80
43920;DHT22;29578;51.946;5.874;2023-05-07T12:13:24;21.70;76.90
43920;DHT22;29578;51.946;5.874;2023-05-07T12:15:53;21.70;76.90
43920;DHT22;29578;51.946;5.874;2023-05-07T12:18:19;21.70;77.00
43920;DHT22;29578;51.946;5.874;2023-05-07T12:20:45;21.60;77.00
43920;DHT22;29578;51.946;5.874;2023-05-07T12:23:11;21.50;77.30
43920;DHT22;29578;51.946;5.874;2023-05-07T12:25:38;21.50;77.50
43920;DHT22;29578;51.946;5.874;2023-05-07T12:28:04;21.50;77.60
43920;DHT22;29578;51.946;5.874;2023-05-07T12:30:38;21.40;77.60
43920;DHT22;29578;51.946;5.874;2023-05-07T12:33:04;21.30;77.70
43920;DHT22;29578;51.946;5.874;2023-05-07T12:35:31;21.30;77.80
43920;DHT22;29578;51.946;5.874;2023-05-07T12:37:59;21.20;77.80
43920;DHT22;29578;51.946;5.874;2023-05-07T12:40:36;21.20;77.70
43920;DHT22;29578;51.946;5.874;2023-05-07T12:43:02;21.30;77.70
43920;DHT22;29578;51.946;5.874;2023-05-07T12:45:28;21.30;77.70
43920;DHT22;29578;51.946;5.874;2023-05-07T12:47:54;21.30;77.60
43920;DHT22;29578;51.946;5.874;2023-05-07T12:50:19;21.20;77.40
43920;DHT22;29578;51.946;5.874;2023-05-07T12:52:47;21.20;77.50
43920;DHT22;29578;51.946;5.874;2023-05-07T12:55:15;21.30;77.50
43920;DHT22;29578;51.946;5.874;2023-05-07T12:57:43;21.20;77.30
43920;DHT22;29578;51.946;5.874;2023-05-07T13:00:11;21.30;77.30
43920;DHT22;29578;51.946;5.874;2023-05-07T13:02:39;21.30;77.20
43920;DHT22;29578;51.946;5.874;2023-05-07T13:05:05;21.40;77.10
43920;DHT22;29578;51.946;5.874;2023-05-07T13:07:31;21.30;76.90
43920;DHT22;29578;51.946;5.874;2023-05-07T13:09:57;21.30;76.90
43920;DHT22;29578;51.946;5.874;2023-05-07T13:12:22;21.30;76.90
43920;DHT22;29578;51.946;5.874;2023-05-07T13:14:48;21.30;77.00
43920;DHT22;29578;51.946;5.874;2023-05-07T13:17:14;21.30;76.90
43920;DHT22;29578;51.946;5.874;2023-05-07T13:19:39;21.30;76.80
43920;DHT22;29578;51.946;5.874;2023-05-07T13:22:05;21.30;76.70
43920;DHT22;29578;51.946;5.874;2023-05-07T13:24:31;21.30;76.60
43920;DHT22;29578;51.946;5.874;2023-05-07T13:26:56;21.20;76.60
43920;DHT22;29578;51.946;5.874;2023-05-07T13:29:22;21.20;76.80
43920;DHT22;29578;51.946;5.874;2023-05-07T13:31:54;21.20;76.80
43920;DHT22;29578;51.946;5.874;2023-05-07T13:34:20;21.20;76.80
43920;DHT22;29578;51.946;5.874;2023-05-07T13:36:45;21.20;76.70
43920;DHT22;29578;51.946;5.874;2023-05-07T13:39:11;21.20;76.60
43920;DHT22;29578;51.946;5.874;2023-05-07T13:41:37;21.30;76.50
43920;DHT22;29578;51.946;5.874;2023-05-07T13:44:02;21.30;76.40
43920;DHT22;29578;51.946;5.874;2023-05-07T13:46:28;21.30;76.20
43920;DHT22;29578;51.946;5.874;2023-05-07T13:48:55;21.30;76.10
43920;DHT22;29578;51.946;5.874;2023-05-07T13:51:21;21.40;76.00
43920;DHT22;29578;51.946;5.874;2023-05-07T13:53:47;21.40;75.90
43920;DHT22;29578;51.946;5.874;2023-05-07T13:56:14;21.50;75.70
43920;DHT22;29578;51.946;5.874;2023-05-07T13:58:40;21.50;75.40
43920;DHT22;29578;51.946;5.874;2023-05-07T14:01:05;21.60;75.30
43920;DHT22;29578;51.946;5.874;2023-05-07T14:03:31;21.70;75.10
43920;DHT22;29578;51.946;5.874;2023-05-07T14:05:59;21.60;74.80
43920;DHT22;29578;51.946;5.874;2023-05-07T14:08:26;21.70;74.80
43920;DHT22;29578;51.946;5.874;2023-05-07T14:10:52;21.70;74.70
43920;DHT22;29578;51.946;5.874;2023-05-07T14:13:18;21.70;74.60
43920;DHT22;29578;51.946;5.874;2023-05-07T14:15:44;21.70;74.70
43920;DHT22;29578;51.946;5.874;2023-05-07T14:18:12;21.60;74.70
43920;DHT22;29578;51.946;5.874;2023-05-07T14:20:38;21.60;74.70
43920;DHT22;29578;51.946;5.874;2023-05-07T14:23:04;21.60;74.70
43920;DHT22;29578;51.946;5.874;2023-05-07T14:25:29;21.50;74.80
43920;DHT22;29578;51.946;5.874;2023-05-07T14:27:55;21.40;74.80
43920;DHT22;29578;51.946;5.874;2023-05-07T14:30:21;21.40;74.90
43920;DHT22;29578;51.946;5.874;2023-05-07T14:32:50;21.50;75.00
43920;DHT22;29578;51.946;5.874;2023-05-07T14:35:16;21.40;74.90
43920;DHT22;29578;51.946;5.874;2023-05-07T14:37:41;21.50;74.80
43920;DHT22;29578;51.946;5.874;2023-05-07T14:40:07;21.40;74.70
43920;DHT22;29578;51.946;5.874;2023-05-07T14:42:33;21.40;74.70
43920;DHT22;29578;51.946;5.874;2023-05-07T14:44:59;21.40;74.80
43920;DHT22;29578;51.946;5.874;2023-05-07T14:47:24;21.40;74.80
43920;DHT22;29578;51.946;5.874;2023-05-07T14:49:50;21.30;74.80
43920;DHT22;29578;51.946;5.874;2023-05-07T14:52:16;21.30;74.90
43920;DHT22;29578;51.946;5.874;2023-05-07T14:54:42;21.30;74.90
43920;DHT22;29578;51.946;5.874;2023-05-07T14:57:09;21.30;74.90
43920;DHT22;29578;51.946;5.874;2023-05-07T14:59:36;21.20;74.90
43920;DHT22;29578;51.946;5.874;2023-05-07T15:02:02;21.20;75.10
43920;DHT22;29578;51.946;5.874;2023-05-07T15:04:30;21.20;75.10
43920;DHT22;29578;51.946;5.874;2023-05-07T15:06:56;21.10;75.10
43920;DHT22;29578;51.946;5.874;2023-05-07T15:09:22;21.00;75.10
43920;DHT22;29578;51.946;5.874;2023-05-07T15:11:47;20.90;75.20
43920;DHT22;29578;51.946;5.874;2023-05-07T15:14:13;20.90;75.30
43920;DHT22;29578;51.946;5.874;2023-05-07T15:16:38;20.80;75.30
43920;DHT22;29578;51.946;5.874;2023-05-07T15:19:04;20.70;75.40
43920;DHT22;29578;51.946;5.874;2023-05-07T15:21:30;20.50;75.70
43920;DHT22;29578;51.946;5.874;2023-05-07T15:23:58;20.20;75.90
43920;DHT22;29578;51.946;5.874;2023-05-07T15:26:23;20.00;76.50
43920;DHT22;29578;51.946;5.874;2023-05-07T15:28:50;19.70;76.80
43920;DHT22;29578;51.946;5.874;2023-05-07T15:31:15;19.40;77.30
43920;DHT22;29578;51.946;5.874;2023-05-07T15:33:42;19.30;77.80